createdAt,value
2019-04-05T00:01:11.728Z,57.32
2019-04-05T00:02:15.854Z,57.32
2019-04-05T00:03:19.567Z,57.32
2019-04-05T00:04:23.334Z,57.72
2019-04-05T00:05:26.980Z,58.06
2019-04-05T00:06:30.626Z,57.90
2019-04-05T00:07:34.267Z,57.91
2019-04-05T00:08:37.959Z,57.96
2019-04-05T00:09:41.613Z,57.80
2019-04-05T00:10:45.344Z,57.78
2019-04-05T00:11:48.982Z,57.64
2019-04-05T00:12:52.617Z,57.71
2019-04-05T00:13:56.313Z,57.90
2019-04-05T00:14:59.940Z,57.93
2019-04-05T00:16:03.594Z,58.13
2019-04-05T00:17:07.227Z,58.36
2019-04-05T00:18:11.196Z,58.45
2019-04-05T00:19:14.877Z,58.54
2019-04-05T00:20:18.513Z,58.37
2019-04-05T00:21:22.169Z,58.52
2019-04-05T00:22:25.894Z,58.57
2019-04-05T00:23:29.615Z,58.53
2019-04-05T00:24:33.284Z,58.37
2019-04-05T00:25:36.921Z,58.73
2019-04-05T00:26:40.646Z,58.70
2019-04-05T00:27:44.636Z,58.77
2019-04-05T00:28:48.278Z,58.77
2019-04-05T00:29:51.938Z,58.87
2019-04-05T00:30:55.589Z,58.87
2019-04-05T00:31:59.247Z,59.34
2019-04-05T00:33:02.908Z,59.68
2019-04-05T00:34:06.547Z,59.68
2019-04-05T00:35:10.240Z,59.70
2019-04-05T00:36:14.205Z,59.73
2019-04-05T00:37:17.854Z,59.83
2019-04-05T00:38:21.486Z,59.56
2019-04-05T00:39:25.152Z,59.64
2019-04-05T00:40:28.815Z,59.64
2019-04-05T00:41:33.172Z,59.64
2019-04-05T00:42:36.963Z,59.51
2019-04-05T00:43:40.612Z,59.86
2019-04-05T00:44:44.190Z,59.84
2019-04-05T00:45:47.866Z,59.85
2019-04-05T00:46:51.522Z,59.94
2019-04-05T00:47:55.150Z,59.54
2019-04-05T00:48:58.810Z,59.98
2019-04-05T00:50:02.805Z,59.92
2019-04-05T00:51:06.808Z,59.92
2019-04-05T00:52:10.442Z,59.96
2019-04-05T00:53:14.095Z,59.74
2019-04-05T00:54:17.754Z,59.86
2019-04-05T00:55:21.412Z,59.98
2019-04-05T00:56:25.091Z,59.86
2019-04-05T00:57:28.718Z,60.21
2019-04-05T00:58:32.374Z,60.50
2019-04-05T00:59:36.021Z,60.52
2019-04-05T01:00:39.694Z,60.20
2019-04-05T01:01:43.368Z,60.33
2019-04-05T01:02:47.039Z,60.42
2019-04-05T01:03:50.670Z,60.42
2019-04-05T01:04:54.351Z,60.58
2019-04-05T01:05:57.980Z,60.39
2019-04-05T01:07:01.686Z,60.41
2019-04-05T01:08:05.690Z,60.46
2019-04-05T01:09:09.510Z,60.46
2019-04-05T01:10:13.567Z,60.37
2019-04-05T01:11:17.320Z,60.41
2019-04-05T01:12:23.394Z,60.51
2019-04-05T01:13:28.424Z,60.57
2019-04-05T01:14:32.169Z,60.57
2019-04-05T01:15:40.993Z,60.51
2019-04-05T01:16:41.194Z,60.76
2019-04-05T01:17:44.884Z,61.03
2019-04-05T01:18:48.518Z,61.03
2019-04-05T01:19:53.622Z,61.36
2019-04-05T01:21:00.171Z,61.36
2019-04-05T01:22:06.273Z,60.99
2019-04-05T01:23:11.240Z,61.78
2019-04-05T01:24:15.478Z,61.80
2019-04-05T01:25:20.911Z,61.80
2019-04-05T01:26:25.448Z,62.13
2019-04-05T01:27:30.874Z,61.60
2019-04-05T01:28:35.090Z,61.64
2019-04-05T01:29:38.755Z,61.27
2019-04-05T01:30:42.390Z,61.27
2019-04-05T01:31:46.061Z,61.48
2019-04-05T01:32:49.706Z,61.50
2019-04-05T01:33:53.413Z,61.35
2019-04-05T01:34:57.049Z,61.35
2019-04-05T01:36:00.762Z,61.42
2019-04-05T01:37:04.488Z,61.42
2019-04-05T01:38:08.455Z,61.44
2019-04-05T01:39:12.140Z,61.37
2019-04-05T01:40:16.102Z,61.39
2019-04-05T01:41:19.757Z,61.84
2019-04-05T01:42:24.208Z,62.20
2019-04-05T01:43:28.164Z,62.32
2019-04-05T01:44:32.427Z,62.52
2019-04-05T01:45:36.192Z,62.52
2019-04-05T01:46:39.927Z,62.42
2019-04-05T01:47:43.582Z,62.13
2019-04-05T01:48:47.634Z,62.13
2019-04-05T01:49:51.324Z,61.82
2019-04-05T01:50:55.142Z,61.65
2019-04-05T01:51:58.954Z,61.77
2019-04-05T01:53:02.655Z,61.32
2019-04-05T01:54:06.290Z,61.43
2019-04-05T01:55:10.425Z,61.10
2019-04-05T01:56:14.066Z,61.90
2019-04-05T01:57:17.766Z,61.48
2019-04-05T01:58:21.500Z,61.48
2019-04-05T01:59:25.227Z,62.08
2019-04-05T02:00:28.969Z,62.44
2019-04-05T02:01:32.624Z,62.44
2019-04-05T02:02:36.259Z,62.11
2019-04-05T02:03:39.988Z,61.88
2019-04-05T02:04:43.717Z,62.05
2019-04-05T02:05:47.383Z,62.81
2019-04-05T02:06:51.105Z,62.81
2019-04-05T02:07:54.957Z,62.18
2019-04-05T02:08:58.659Z,62.18
2019-04-05T02:10:02.840Z,62.33
2019-04-05T02:11:06.608Z,62.65
2019-04-05T02:12:10.439Z,62.46
2019-04-05T02:13:14.263Z,62.46
2019-04-05T02:14:18.197Z,63.02
2019-04-05T02:15:27.313Z,63.02
2019-04-05T02:16:30.993Z,62.62
2019-04-05T02:17:36.083Z,62.50
2019-04-05T02:18:39.842Z,62.53
2019-04-05T02:19:43.571Z,62.23
2019-04-05T02:20:47.213Z,62.23
2019-04-05T02:21:51.335Z,62.66
2019-04-05T02:22:55.343Z,62.49
2019-04-05T02:23:58.995Z,62.96
2019-04-05T02:25:02.648Z,62.96
2019-04-05T02:26:06.495Z,62.69
2019-04-05T02:27:10.257Z,62.69
2019-04-05T02:28:14.009Z,62.59
2019-04-05T02:29:17.647Z,62.44
2019-04-05T02:30:21.423Z,62.14
2019-04-05T02:31:25.089Z,62.14
2019-04-05T02:32:29.189Z,61.96
2019-04-05T02:33:32.858Z,62.32
2019-04-05T02:34:36.561Z,61.97
2019-04-05T02:35:40.273Z,61.98
2019-04-05T02:36:43.905Z,62.21
2019-04-05T02:37:47.657Z,62.41
2019-04-05T02:38:51.331Z,61.67
2019-04-05T02:39:54.994Z,61.67
2019-04-05T02:41:01.121Z,61.96
2019-04-05T02:42:05.061Z,61.96
2019-04-05T02:43:09.541Z,62.16
2019-04-05T02:44:15.466Z,62.37
2019-04-05T02:45:20.503Z,62.37
2019-04-05T02:46:26.271Z,61.99
2019-04-05T02:47:30.094Z,61.67
2019-04-05T02:48:36.846Z,61.96
2019-04-05T02:49:41.881Z,61.77
2019-04-05T02:50:48.449Z,61.54
2019-04-05T02:51:53.891Z,61.54
2019-04-05T02:53:00.465Z,60.81
2019-04-05T02:54:04.625Z,61.49
2019-04-05T02:55:08.966Z,61.49
2019-04-05T02:56:14.017Z,61.63
2019-04-05T02:57:18.777Z,61.67
2019-04-05T02:58:23.009Z,61.84
2019-04-05T02:59:26.994Z,62.09
2019-04-05T03:00:32.650Z,61.62
2019-04-05T03:01:36.599Z,61.29
2019-04-05T03:02:40.951Z,61.29
2019-04-05T03:03:44.589Z,61.28
2019-04-05T03:04:48.475Z,62.36
2019-04-05T03:05:52.627Z,61.67
2019-04-05T03:06:56.368Z,62.05
2019-04-05T03:08:00.391Z,61.64
2019-04-05T03:09:06.345Z,61.64
2019-04-05T03:10:10.028Z,61.75
2019-04-05T03:11:15.372Z,61.05
2019-04-05T03:12:19.858Z,61.05
2019-04-05T03:13:24.805Z,61.72
2019-04-05T03:14:29.883Z,61.46
2019-04-05T03:15:33.553Z,61.33
2019-04-05T03:16:41.908Z,62.14
2019-04-05T03:17:45.762Z,62.14
2019-04-05T03:19:01.673Z,61.59
2019-04-05T03:20:06.947Z,61.46
2019-04-05T03:21:12.280Z,61.33
2019-04-05T03:22:16.438Z,61.25
2019-04-05T03:23:20.669Z,61.38
2019-04-05T03:24:27.321Z,61.23
2019-04-05T03:25:31.613Z,61.23
2019-04-05T03:26:38.177Z,61.36
2019-04-05T03:27:41.823Z,61.43
2019-04-05T03:28:48.647Z,61.43
2019-04-05T03:29:53.208Z,61.53
2019-04-05T03:30:57.390Z,60.96
2019-04-05T03:32:01.029Z,60.96
2019-04-05T03:33:04.774Z,61.43
2019-04-05T03:34:08.995Z,61.43
2019-04-05T03:35:12.810Z,61.04
2019-04-05T03:36:17.277Z,60.83
2019-04-05T03:37:21.489Z,61.08
2019-04-05T03:38:25.144Z,60.51
2019-04-05T03:39:29.093Z,60.80
2019-04-05T03:40:32.898Z,60.80
2019-04-05T03:41:36.742Z,61.33
2019-04-05T03:42:40.630Z,61.33
2019-04-05T03:43:45.803Z,60.65
2019-04-05T03:44:50.056Z,60.65
2019-04-05T03:45:53.986Z,60.41
2019-04-05T03:46:58.215Z,60.04
2019-04-05T03:48:02.165Z,60.04
2019-04-05T03:49:06.230Z,60.25
2019-04-05T03:50:10.081Z,60.25
2019-04-05T03:51:14.034Z,60.24
2019-04-05T03:52:17.983Z,60.61
2019-04-05T03:53:22.938Z,60.61
2019-04-05T03:54:26.859Z,60.41
2019-04-05T03:55:30.870Z,61.23
2019-04-05T03:56:37.947Z,64.25
2019-04-05T03:57:41.080Z,62.83
2019-04-05T03:58:49.396Z,61.98
2019-04-05T03:59:53.638Z,62.61
2019-04-05T04:00:57.566Z,63.59
2019-04-05T04:02:01.695Z,63.59
2019-04-05T04:03:05.793Z,64.75
2019-04-05T04:04:09.787Z,64.75
2019-04-05T04:05:13.587Z,64.40
2019-04-05T04:06:17.649Z,65.01
2019-04-05T04:07:21.371Z,64.11
2019-04-05T04:08:25.175Z,64.56
2019-04-05T04:09:29.116Z,64.71
2019-04-05T04:10:32.812Z,64.52
2019-04-05T04:11:36.645Z,64.81
2019-04-05T04:12:40.674Z,65.32
2019-04-05T04:13:44.622Z,65.50
2019-04-05T04:14:49.814Z,65.19
2019-04-05T04:15:54.748Z,65.04
2019-04-05T04:17:11.544Z,64.96
2019-04-05T04:18:05.071Z,65.10
2019-04-05T04:19:08.939Z,65.33
2019-04-05T04:20:42.874Z,64.70
2019-04-05T04:22:11.930Z,65.20
2019-04-05T04:23:15.989Z,65.21
2019-04-05T04:24:20.787Z,65.21
2019-04-05T04:25:30.017Z,65.21
2019-04-05T04:26:35.089Z,65.55
2019-04-05T04:27:39.686Z,65.84
2019-04-05T04:28:43.355Z,65.20
2019-04-05T04:29:47.773Z,65.24
2019-04-05T04:31:05.792Z,65.27
2019-04-05T04:32:10.301Z,65.19
2019-04-05T04:33:14.511Z,65.57
2019-04-05T04:34:20.058Z,65.60
2019-04-05T04:35:23.768Z,66.06
2019-04-05T04:36:27.622Z,66.26
2019-04-05T04:37:31.282Z,66.42
2019-04-05T04:38:34.925Z,66.34
2019-04-05T04:39:38.966Z,66.06
2019-04-05T04:40:42.814Z,65.93
2019-04-05T04:41:46.559Z,65.82
2019-04-05T04:42:50.472Z,65.86
2019-04-05T04:43:55.208Z,65.94
2019-04-05T04:45:11.441Z,66.04
2019-04-05T04:46:05.213Z,65.93
2019-04-05T04:47:08.864Z,65.93
2019-04-05T04:48:12.700Z,66.08
2019-04-05T04:49:16.539Z,65.87
2019-04-05T04:50:21.073Z,65.53
2019-04-05T04:51:24.898Z,65.94
2019-04-05T04:52:31.715Z,65.57
2019-04-05T04:53:35.862Z,65.04
2019-04-05T04:54:40.181Z,64.61
2019-04-05T04:55:43.867Z,64.02
2019-04-05T04:56:47.822Z,63.78
2019-04-05T04:57:51.504Z,63.49
2019-04-05T04:58:55.261Z,63.78
2019-04-05T04:59:58.907Z,64.09
2019-04-05T05:01:02.906Z,63.84
2019-04-05T05:02:06.882Z,64.39
2019-04-05T05:03:11.099Z,64.41
2019-04-05T05:04:14.829Z,64.47
2019-04-05T05:05:19.682Z,64.21
2019-04-05T05:06:23.368Z,63.69
2019-04-05T05:07:27.018Z,63.19
2019-04-05T05:08:30.651Z,62.92
2019-04-05T05:09:34.611Z,62.92
2019-04-05T05:10:38.720Z,63.23
2019-04-05T05:11:42.517Z,62.49
2019-04-05T05:12:46.482Z,62.49
2019-04-05T05:13:50.375Z,62.14
2019-04-05T05:14:54.413Z,62.14
2019-04-05T05:15:58.442Z,61.64
2019-04-05T05:17:02.126Z,61.76
2019-04-05T05:18:05.952Z,61.40
2019-04-05T05:19:09.679Z,61.40
2019-04-05T05:20:13.373Z,61.77
2019-04-05T05:21:17.097Z,61.65
2019-04-05T05:22:20.792Z,60.64
2019-04-05T05:23:24.546Z,60.64
2019-04-05T05:24:29.038Z,60.30
2019-04-05T05:25:36.126Z,60.21
2019-04-05T05:26:39.822Z,60.31
2019-04-05T05:27:45.076Z,60.31
2019-04-05T05:28:48.919Z,60.41
2019-04-05T05:29:52.754Z,60.96
2019-04-05T05:30:56.998Z,60.96
2019-04-05T05:32:00.897Z,60.75
2019-04-05T05:33:04.727Z,60.75
2019-04-05T05:34:08.685Z,60.84
2019-04-05T05:35:12.898Z,60.65
2019-04-05T05:36:16.929Z,60.42
2019-04-05T05:37:20.992Z,60.50
2019-04-05T05:38:24.829Z,60.50
2019-04-05T05:39:28.471Z,60.71
2019-04-05T05:40:35.114Z,60.00
2019-04-05T05:41:37.490Z,60.70
2019-04-05T05:42:41.650Z,60.70
2019-04-05T05:43:45.383Z,60.18
2019-04-05T05:44:49.053Z,60.09
2019-04-05T05:45:52.714Z,60.09
2019-04-05T05:46:56.374Z,60.18
2019-04-05T05:48:00.610Z,59.99
2019-04-05T05:49:04.669Z,59.47
2019-04-05T05:50:08.468Z,59.56
2019-04-05T05:51:12.522Z,60.22
2019-04-05T05:52:16.394Z,59.69
2019-04-05T05:53:20.252Z,59.37
2019-04-05T05:54:23.913Z,59.37
2019-04-05T05:55:30.110Z,59.83
2019-04-05T05:56:32.949Z,59.83
2019-04-05T05:57:36.595Z,59.37
2019-04-05T05:58:40.243Z,58.82
2019-04-05T05:59:43.899Z,58.82
2019-04-05T06:00:47.599Z,58.87
2019-04-05T06:01:51.235Z,58.87
2019-04-05T06:02:59.530Z,58.84
2019-04-05T06:04:03.192Z,58.79
2019-04-05T06:05:06.971Z,58.61
2019-04-05T06:06:10.682Z,58.93
2019-04-05T06:07:14.330Z,58.68
2019-04-05T06:08:17.977Z,58.68
2019-04-05T06:09:21.629Z,58.52
2019-04-05T06:10:25.287Z,58.52
2019-04-05T06:11:29.010Z,58.25
2019-04-05T06:12:32.653Z,56.75
2019-04-05T06:13:36.308Z,55.99
2019-04-05T06:14:39.957Z,55.99
2019-04-05T06:15:43.612Z,54.53
2019-04-05T06:16:47.308Z,53.20
2019-04-05T06:18:03.826Z,53.20
2019-04-05T06:18:56.411Z,52.74
2019-04-05T06:20:01.554Z,52.74
2019-04-05T06:21:05.758Z,52.77
2019-04-05T06:22:09.401Z,52.77
2019-04-05T06:23:13.097Z,52.37
2019-04-05T06:24:16.798Z,52.19
2019-04-05T06:25:22.141Z,52.21
2019-04-05T06:26:25.725Z,52.33
2019-04-05T06:27:30.992Z,52.18
2019-04-05T06:28:34.702Z,51.90
2019-04-05T06:29:38.313Z,51.80
2019-04-05T06:30:41.969Z,51.71
2019-04-05T06:31:45.676Z,51.50
2019-04-05T06:32:49.428Z,51.30
2019-04-05T06:33:53.166Z,51.17
2019-04-05T06:34:56.890Z,50.93
2019-04-05T06:36:00.536Z,50.60
2019-04-05T06:37:04.190Z,50.54
2019-04-05T06:38:07.919Z,50.45
2019-04-05T06:39:11.596Z,50.24
2019-04-05T06:40:15.253Z,50.16
2019-04-05T06:41:18.877Z,50.21
2019-04-05T06:42:22.509Z,50.38
2019-04-05T06:43:26.197Z,50.43
2019-04-05T06:44:30.522Z,50.22
2019-04-05T06:45:34.157Z,50.22
2019-04-05T06:46:37.809Z,50.12
2019-04-05T06:47:43.660Z,50.13
2019-04-05T06:48:47.279Z,50.54
2019-04-05T06:49:50.985Z,50.46
2019-04-05T06:50:54.708Z,50.34
2019-04-05T06:51:58.377Z,50.26
2019-04-05T06:53:02.081Z,49.99
2019-04-05T06:54:05.731Z,49.71
2019-04-05T06:55:09.407Z,49.72
2019-04-05T06:56:13.061Z,49.65
2019-04-05T06:57:16.698Z,49.55
2019-04-05T06:58:20.556Z,49.59
2019-04-05T06:59:24.222Z,49.46
2019-04-05T07:00:29.520Z,49.55
2019-04-05T07:01:33.270Z,49.53
2019-04-05T07:02:36.913Z,49.18
2019-04-05T07:03:40.560Z,49.45
2019-04-05T07:04:44.209Z,49.57
2019-04-05T07:05:47.870Z,49.20
2019-04-05T07:06:51.516Z,49.00
2019-04-05T07:07:55.180Z,48.67
2019-04-05T07:08:58.833Z,48.33
2019-04-05T07:10:02.479Z,48.33
2019-04-05T07:11:06.173Z,48.46
2019-04-05T07:12:09.834Z,48.39
2019-04-05T07:13:13.463Z,48.18
2019-04-05T07:14:18.547Z,48.02
2019-04-05T07:15:22.165Z,47.46
2019-04-05T07:16:25.863Z,47.46
2019-04-05T07:17:31.176Z,47.44
2019-04-05T07:18:36.284Z,47.26
2019-04-05T07:19:40.241Z,47.26
2019-04-05T07:20:43.895Z,47.70
2019-04-05T07:21:47.583Z,47.97
2019-04-05T07:22:51.313Z,47.97
2019-04-05T07:23:54.897Z,47.02
2019-04-05T07:24:58.912Z,47.02
2019-04-05T07:26:02.717Z,47.40
2019-04-05T07:27:06.483Z,47.48
2019-04-05T07:28:10.190Z,47.48
2019-04-05T07:29:13.847Z,47.43
2019-04-05T07:30:17.572Z,47.43
2019-04-05T07:31:21.577Z,47.44
2019-04-05T07:32:25.332Z,47.00
2019-04-05T07:33:28.970Z,47.06
2019-04-05T07:34:33.024Z,46.67
2019-04-05T07:35:36.878Z,46.67
2019-04-05T07:36:40.622Z,46.96
2019-04-05T07:37:44.469Z,47.68
2019-04-05T07:38:48.198Z,46.98
2019-04-05T07:39:51.903Z,47.19
2019-04-05T07:40:55.698Z,47.01
2019-04-05T07:41:59.503Z,46.99
2019-04-05T07:43:03.161Z,47.37
2019-04-05T07:44:06.810Z,47.60
2019-04-05T07:45:11.106Z,47.03
2019-04-05T07:46:14.854Z,46.88
2019-04-05T07:47:18.500Z,47.14
2019-04-05T07:48:22.159Z,47.14
2019-04-05T07:49:25.803Z,46.81
2019-04-05T07:50:29.526Z,46.60
2019-04-05T07:51:33.193Z,46.45
2019-04-05T07:52:36.904Z,46.21
2019-04-05T07:53:40.638Z,46.32
2019-04-05T07:54:44.569Z,45.61
2019-04-05T07:55:48.288Z,45.15
2019-04-05T07:56:51.990Z,45.15
2019-04-05T07:57:55.695Z,45.73
2019-04-05T07:58:59.428Z,45.66
2019-04-05T08:00:04.593Z,45.69
2019-04-05T08:01:08.635Z,45.32
2019-04-05T08:02:12.371Z,45.32
2019-04-05T08:03:16.198Z,45.47
2019-04-05T08:04:19.846Z,45.31
2019-04-05T08:05:23.489Z,45.39
2019-04-05T08:06:27.941Z,45.45
2019-04-05T08:07:34.541Z,45.63
2019-04-05T08:08:46.865Z,45.61
2019-04-05T08:09:50.798Z,45.61
2019-04-05T08:10:56.326Z,45.58
2019-04-05T08:12:00.506Z,45.28
2019-04-05T08:13:04.932Z,45.40
2019-04-05T08:14:10.323Z,45.54
2019-04-05T08:15:14.191Z,45.76
2019-04-05T08:16:17.918Z,45.74
2019-04-05T08:17:21.643Z,45.10
2019-04-05T08:18:25.325Z,44.87
2019-04-05T08:19:28.981Z,44.73
2019-04-05T08:20:32.605Z,44.69
2019-04-05T08:21:36.324Z,44.24
2019-04-05T08:22:40.085Z,44.24
2019-04-05T08:23:43.871Z,44.46
2019-04-05T08:24:47.506Z,44.24
2019-04-05T08:25:51.231Z,44.24
2019-04-05T08:26:56.407Z,44.28
2019-04-05T08:28:00.066Z,44.44
2019-04-05T08:29:04.053Z,44.10
2019-04-05T08:30:07.899Z,43.99
2019-04-05T08:31:14.435Z,43.95
2019-04-05T08:32:21.468Z,43.92
2019-04-05T08:33:23.310Z,43.96
2019-04-05T08:34:27.046Z,43.96
2019-04-05T08:35:30.803Z,43.98
2019-04-05T08:36:34.458Z,44.07
2019-04-05T08:37:38.180Z,44.31
2019-04-05T08:38:41.904Z,44.21
2019-04-05T08:39:45.557Z,44.15
2019-04-05T08:40:49.228Z,43.55
2019-04-05T08:41:52.961Z,43.45
2019-04-05T08:42:56.729Z,43.45
2019-04-05T08:44:00.465Z,43.36
2019-04-05T08:45:05.215Z,43.29
2019-04-05T08:46:08.917Z,43.41
2019-04-05T08:47:13.042Z,43.44
2019-04-05T08:48:16.758Z,43.47
2019-04-05T08:49:20.411Z,43.63
2019-04-05T08:50:24.076Z,43.20
2019-04-05T08:51:27.735Z,43.33
2019-04-05T08:52:31.447Z,43.19
2019-04-05T08:53:35.104Z,43.15
2019-04-05T08:54:38.739Z,43.29
2019-04-05T08:55:42.474Z,43.01
2019-04-05T08:56:46.178Z,43.14
2019-04-05T08:57:49.873Z,43.28
2019-04-05T08:58:53.526Z,43.03
2019-04-05T08:59:57.156Z,42.55
2019-04-05T09:01:00.827Z,42.57
2019-04-05T09:02:04.515Z,42.61
2019-04-05T09:03:08.149Z,42.89
2019-04-05T09:04:11.891Z,42.84
2019-04-05T09:05:15.678Z,42.81
2019-04-05T09:06:20.050Z,42.86
2019-04-05T09:07:28.193Z,42.82
2019-04-05T09:08:31.840Z,42.93
2019-04-05T09:09:35.597Z,43.10
2019-04-05T09:10:39.241Z,43.28
2019-04-05T09:11:42.899Z,43.07
2019-04-05T09:12:46.655Z,43.49
2019-04-05T09:13:50.308Z,42.91
2019-04-05T09:14:53.892Z,42.91
2019-04-05T09:15:57.542Z,43.70
2019-04-05T09:17:01.173Z,44.14
2019-04-05T09:18:04.846Z,44.44
2019-04-05T09:19:08.802Z,44.34
2019-04-05T09:20:12.446Z,44.99
2019-04-05T09:21:17.748Z,44.81
2019-04-05T09:22:21.529Z,44.63
2019-04-05T09:23:25.226Z,44.63
2019-04-05T09:24:28.853Z,44.30
2019-04-05T09:25:32.566Z,44.20
2019-04-05T09:26:36.270Z,44.38
2019-04-05T09:27:39.995Z,44.58
2019-04-05T09:28:43.739Z,44.78
2019-04-05T09:29:47.322Z,44.83
2019-04-05T09:30:51.958Z,44.83
2019-04-05T09:31:55.881Z,44.64
2019-04-05T09:32:59.553Z,44.43
2019-04-05T09:34:03.320Z,44.19
2019-04-05T09:35:07.324Z,44.27
2019-04-05T09:36:11.057Z,44.62
2019-04-05T09:37:14.720Z,44.83
2019-04-05T09:38:18.312Z,45.01
2019-04-05T09:39:22.017Z,44.84
2019-04-05T09:40:25.671Z,45.09
2019-04-05T09:41:29.255Z,44.88
2019-04-05T09:42:32.846Z,44.99
2019-04-05T09:43:36.526Z,44.92
2019-04-05T09:44:40.185Z,44.03
2019-04-05T09:45:43.858Z,43.54
2019-04-05T09:46:51.055Z,43.54
2019-04-05T09:47:53.236Z,43.91
2019-04-05T09:48:56.942Z,44.02
2019-04-05T09:50:02.218Z,43.78
2019-04-05T09:51:07.213Z,43.78
2019-04-05T09:52:11.132Z,43.98
2019-04-05T09:53:14.873Z,43.96
2019-04-05T09:54:18.964Z,44.79
2019-04-05T09:55:27.112Z,44.09
2019-04-05T09:56:30.765Z,44.10
2019-04-05T09:57:34.430Z,43.91
2019-04-05T09:58:38.083Z,43.98
2019-04-05T09:59:41.760Z,43.84
2019-04-05T10:00:45.423Z,43.78
2019-04-05T10:01:49.476Z,43.69
2019-04-05T10:02:53.218Z,43.83
2019-04-05T10:03:56.880Z,43.82
2019-04-05T10:05:00.541Z,44.03
2019-04-05T10:06:04.546Z,43.88
2019-04-05T10:07:08.481Z,43.96
2019-04-05T10:08:13.382Z,43.68
2019-04-05T10:09:16.997Z,43.64
2019-04-05T10:10:20.722Z,43.47
2019-04-05T10:11:24.373Z,43.71
2019-04-05T10:12:28.024Z,43.76
2019-04-05T10:13:31.661Z,43.82
2019-04-05T10:14:35.303Z,43.84
2019-04-05T10:15:38.947Z,43.88
2019-04-05T10:16:42.613Z,44.37
2019-04-05T10:17:46.265Z,43.99
2019-04-05T10:18:51.531Z,43.98
2019-04-05T10:19:55.426Z,43.90
2019-04-05T10:21:02.265Z,44.13
2019-04-05T10:22:22.487Z,44.21
2019-04-05T10:23:30.672Z,43.98
2019-04-05T10:24:34.798Z,43.94
2019-04-05T10:25:44.842Z,43.92
2019-04-05T10:26:48.533Z,44.00
2019-04-05T10:27:52.651Z,43.92
2019-04-05T10:28:56.290Z,44.02
2019-04-05T10:29:59.920Z,43.90
2019-04-05T10:31:03.583Z,44.31
2019-04-05T10:32:07.280Z,44.34
2019-04-05T10:33:10.934Z,44.74
2019-04-05T10:34:14.597Z,44.74
2019-04-05T10:35:18.245Z,44.67
2019-04-05T10:36:21.955Z,44.76
2019-04-05T10:37:25.638Z,44.57
2019-04-05T10:38:29.295Z,44.59
2019-04-05T10:39:33.023Z,45.93
2019-04-05T10:40:36.678Z,44.21
2019-04-05T10:41:42.111Z,44.28
2019-04-05T10:42:45.872Z,44.30
2019-04-05T10:43:49.518Z,44.28
2019-04-05T10:44:53.244Z,44.35
2019-04-05T10:45:56.919Z,44.24
2019-04-05T10:47:00.568Z,44.50
2019-04-05T10:48:04.267Z,44.55
2019-04-05T10:49:07.904Z,44.66
2019-04-05T10:50:13.622Z,44.87
2019-04-05T10:51:17.268Z,44.62
2019-04-05T10:52:20.930Z,44.57
2019-04-05T10:53:24.625Z,44.33
2019-04-05T10:54:28.262Z,44.17
2019-04-05T10:55:31.902Z,43.99
2019-04-05T10:56:35.562Z,43.66
2019-04-05T10:57:39.234Z,43.60
2019-04-05T10:58:42.940Z,43.42
2019-04-05T10:59:46.584Z,43.50
2019-04-05T11:00:50.323Z,43.46
2019-04-05T11:01:54.025Z,43.52
2019-04-05T11:02:57.735Z,43.54
2019-04-05T11:04:01.428Z,43.65
2019-04-05T11:05:05.445Z,43.74
2019-04-05T11:06:09.427Z,43.73
2019-04-05T11:07:13.073Z,43.72
2019-04-05T11:08:16.797Z,43.52
2019-04-05T11:09:20.587Z,43.58
2019-04-05T11:10:24.281Z,43.19
2019-04-05T11:11:27.957Z,43.18
2019-04-05T11:12:31.648Z,42.78
2019-04-05T11:13:35.692Z,42.33
2019-04-05T11:14:39.301Z,42.53
2019-04-05T11:15:42.946Z,42.77
2019-04-05T11:16:57.793Z,42.71
2019-04-05T11:17:52.057Z,42.58
2019-04-05T11:18:55.757Z,42.47
2019-04-05T11:19:59.459Z,42.18
2019-04-05T11:21:03.103Z,42.09
2019-04-05T11:22:06.830Z,42.10
2019-04-05T11:23:10.580Z,41.95
2019-04-05T11:24:14.368Z,42.00
2019-04-05T11:25:20.628Z,42.29
2019-04-05T11:26:23.897Z,42.34
2019-04-05T11:27:27.645Z,42.48
2019-04-05T11:28:31.321Z,42.62
2019-04-05T11:29:35.432Z,42.31
2019-04-05T11:30:44.321Z,42.25
2019-04-05T11:31:56.964Z,41.98
2019-04-05T11:32:53.443Z,41.99
2019-04-05T11:33:57.218Z,42.51
2019-04-05T11:35:00.960Z,42.50
2019-04-05T11:36:04.740Z,42.48
2019-04-05T11:37:08.392Z,42.36
2019-04-05T11:38:12.807Z,42.45
2019-04-05T11:39:16.455Z,42.60
2019-04-05T11:40:20.322Z,42.54
2019-04-05T11:41:26.319Z,42.39
2019-04-05T11:42:32.987Z,42.49
2019-04-05T11:43:37.379Z,42.19
2019-04-05T11:44:43.103Z,41.79
2019-04-05T11:45:48.553Z,41.67
2019-04-05T11:46:52.903Z,41.63
2019-04-05T11:47:57.723Z,41.52
2019-04-05T11:49:03.718Z,41.35
2019-04-05T11:50:12.709Z,41.27
2019-04-05T11:51:16.366Z,41.65
2019-04-05T11:52:20.222Z,41.47
2019-04-05T11:53:23.959Z,41.79
2019-04-05T11:54:27.545Z,41.46
2019-04-05T11:55:31.197Z,41.36
2019-04-05T11:56:34.824Z,41.40
2019-04-05T11:57:41.154Z,41.61
2019-04-05T11:58:48.522Z,41.40
2019-04-05T11:59:51.259Z,41.35
2019-04-05T12:01:12.564Z,41.64
2019-04-05T12:02:17.993Z,41.83
2019-04-05T12:03:32.068Z,41.78
2019-04-05T12:04:35.775Z,41.50
2019-04-05T12:05:39.424Z,41.35
2019-04-05T12:06:43.145Z,41.17
2019-04-05T12:07:46.794Z,41.23
2019-04-05T12:08:50.475Z,41.23
2019-04-05T12:09:54.204Z,41.19
2019-04-05T12:10:58.119Z,41.06
2019-04-05T12:12:01.779Z,41.09
2019-04-05T12:13:05.426Z,41.02
2019-04-05T12:14:09.209Z,40.63
2019-04-05T12:15:13.333Z,40.90
2019-04-05T12:16:17.037Z,40.81
2019-04-05T12:17:20.760Z,40.80
2019-04-05T12:18:24.343Z,40.71
2019-04-05T12:19:28.036Z,40.91
2019-04-05T12:20:33.338Z,40.97
2019-04-05T12:21:37.484Z,40.75
2019-04-05T12:22:41.167Z,40.57
2019-04-05T12:23:44.805Z,40.52
2019-04-05T12:24:48.493Z,40.63
2019-04-05T12:25:54.428Z,40.84
2019-04-05T12:26:57.658Z,40.85
2019-04-05T12:28:06.882Z,40.97
2019-04-05T12:29:06.626Z,41.03
2019-04-05T12:30:12.655Z,40.98
2019-04-05T12:31:16.472Z,41.36
2019-04-05T12:32:32.985Z,41.34
2019-04-05T12:33:27.135Z,41.34
2019-04-05T12:34:30.764Z,41.38
2019-04-05T12:35:37.441Z,41.33
2019-04-05T12:36:39.922Z,41.28
2019-04-05T12:37:50.161Z,41.37
2019-04-05T12:38:49.407Z,41.31
2019-04-05T12:39:53.046Z,41.46
2019-04-05T12:40:57.236Z,41.68
2019-04-05T12:42:00.875Z,41.74
2019-04-05T12:43:04.540Z,41.91
2019-04-05T12:44:08.198Z,41.99
2019-04-05T12:45:15.299Z,42.10
2019-04-05T12:46:18.560Z,42.33
2019-04-05T12:47:22.226Z,42.18
2019-04-05T12:48:25.874Z,42.08
2019-04-05T12:49:29.534Z,42.18
2019-04-05T12:50:33.201Z,42.01
2019-04-05T12:51:36.904Z,41.99
2019-04-05T12:52:40.532Z,42.08
2019-04-05T12:53:44.190Z,41.99
2019-04-05T12:54:50.975Z,42.14
2019-04-05T12:55:56.234Z,42.12
2019-04-05T12:56:58.736Z,42.06
2019-04-05T12:58:02.388Z,42.00
2019-04-05T12:59:06.115Z,41.98
2019-04-05T13:00:13.582Z,41.95
2019-04-05T13:01:17.318Z,42.17
2019-04-05T13:02:33.370Z,42.09
2019-04-05T13:03:29.093Z,42.57
2019-04-05T13:04:32.757Z,42.61
2019-04-05T13:05:36.409Z,42.49
2019-04-05T13:06:42.314Z,42.47
2019-04-05T13:07:45.477Z,42.36
2019-04-05T13:08:49.129Z,42.34
2019-04-05T13:09:54.939Z,42.31
2019-04-05T13:10:58.184Z,42.17
2019-04-05T13:12:01.797Z,41.86
2019-04-05T13:13:05.488Z,41.99
2019-04-05T13:14:09.223Z,41.92
2019-04-05T13:15:16.967Z,41.58
2019-04-05T13:16:18.643Z,41.44
2019-04-05T13:17:22.315Z,41.42
2019-04-05T13:18:25.994Z,41.68
2019-04-05T13:19:30.717Z,42.01
2019-04-05T13:20:34.894Z,41.93
2019-04-05T13:21:38.520Z,41.89
2019-04-05T13:22:42.189Z,41.72
2019-04-05T13:23:45.876Z,41.47
2019-04-05T13:24:49.591Z,41.70
2019-04-05T13:25:53.245Z,41.85
2019-04-05T13:26:56.973Z,41.98
2019-04-05T13:28:12.455Z,41.81
2019-04-05T13:29:09.970Z,41.93
2019-04-05T13:30:18.357Z,41.92
2019-04-05T13:31:20.089Z,42.00
2019-04-05T13:32:23.744Z,41.92
2019-04-05T13:33:28.980Z,41.92
2019-04-05T13:34:32.865Z,41.63
2019-04-05T13:35:36.528Z,41.66
2019-04-05T13:36:40.182Z,41.73
2019-04-05T13:37:43.831Z,41.52
2019-04-05T13:38:54.654Z,40.90
2019-04-05T13:39:52.892Z,41.09
2019-04-05T13:40:57.000Z,41.21
2019-04-05T13:42:01.784Z,41.21
2019-04-05T13:43:06.127Z,41.18
2019-04-05T13:44:09.925Z,40.91
2019-04-05T13:45:14.007Z,40.99
2019-04-05T13:46:22.227Z,40.62
2019-04-05T13:47:23.360Z,40.50
2019-04-05T13:48:27.021Z,40.20